sensor_id;sensor_type;location;lat;lon;timestamp;P1;durP1;ratioP1;P2;durP2;ratioP2
72301;SDS011;60235;52.234;5.186;2022-10-30T00:01:01;15.32;;;6.10;;
72301;SDS011;60235;52.234;5.186;2022-10-30T00:03:27;13.88;;;7.10;;
72301;SDS011;60235;52.234;5.186;2022-10-30T00:05:53;19.02;;;5.90;;
72301;SDS011;60235;52.234;5.186;2022-10-30T00:08:20;20.00;;;7.30;;
72301;SDS011;60235;52.234;5.186;2022-10-30T00:10:47;24.15;;;6.75;;
72301;SDS011;60235;52.234;5.186;2022-10-30T00:13:14;18.85;;;6.40;;
72301;SDS011;60235;52.234;5.186;2022-10-30T00:15:45;18.23;;;6.93;;
72301;SDS011;60235;52.234;5.186;2022-10-30T00:18:11;19.92;;;6.47;;
72301;SDS011;60235;52.234;5.186;2022-10-30T00:20:38;15.90;;;6.40;;
72301;SDS011;60235;52.234;5.186;2022-10-30T00:23:04;20.73;;;6.78;;
72301;SDS011;60235;52.234;5.186;2022-10-30T00:25:30;19.23;;;6.60;;
72301;SDS011;60235;52.234;5.186;2022-10-30T00:27:56;15.65;;;6.50;;
72301;SDS011;60235;52.234;5.186;2022-10-30T00:30:22;19.00;;;6.78;;
72301;SDS011;60235;52.234;5.186;2022-10-30T00:32:48;17.52;;;6.05;;
72301;SDS011;60235;52.234;5.186;2022-10-30T00:35:14;19.50;;;5.88;;
72301;SDS011;60235;52.234;5.186;2022-10-30T00:37:40;17.67;;;6.40;;
72301;SDS011;60235;52.234;5.186;2022-10-30T00:40:06;21.80;;;6.45;;
72301;SDS011;60235;52.234;5.186;2022-10-30T00:42:32;14.77;;;6.05;;
72301;SDS011;60235;52.234;5.186;2022-10-30T00:44:58;18.27;;;6.40;;
72301;SDS011;60235;52.234;5.186;2022-10-30T00:47:29;15.73;;;5.70;;
72301;SDS011;60235;52.234;5.186;2022-10-30T00:50:07;16.90;;;6.55;;
72301;SDS011;60235;52.234;5.186;2022-10-30T00:52:35;20.65;;;5.85;;
72301;SDS011;60235;52.234;5.186;2022-10-30T00:55:06;19.23;;;6.32;;
72301;SDS011;60235;52.234;5.186;2022-10-30T00:57:33;19.25;;;6.25;;
72301;SDS011;60235;52.234;5.186;2022-10-30T01:00:00;17.65;;;6.95;;
72301;SDS011;60235;52.234;5.186;2022-10-30T01:02:26;18.20;;;6.30;;
72301;SDS011;60235;52.234;5.186;2022-10-30T01:04:52;19.10;;;6.75;;
72301;SDS011;60235;52.234;5.186;2022-10-30T01:07:19;16.88;;;6.68;;
72301;SDS011;60235;52.234;5.186;2022-10-30T01:09:45;16.88;;;6.18;;
72301;SDS011;60235;52.234;5.186;2022-10-30T01:12:12;24.58;;;6.43;;
72301;SDS011;60235;52.234;5.186;2022-10-30T01:14:40;19.85;;;6.55;;
72301;SDS011;60235;52.234;5.186;2022-10-30T01:19:58;16.00;;;6.22;;
72301;SDS011;60235;52.234;5.186;2022-10-30T01:25:08;16.23;;;6.35;;
72301;SDS011;60235;52.234;5.186;2022-10-30T01:38:00;18.08;;;6.30;;
72301;SDS011;60235;52.234;5.186;2022-10-30T01:42:57;17.70;;;6.43;;
72301;SDS011;60235;52.234;5.186;2022-10-30T01:50:31;19.02;;;7.10;;
72301;SDS011;60235;52.234;5.186;2022-10-30T01:55:35;16.75;;;7.32;;
72301;SDS011;60235;52.234;5.186;2022-10-30T01:58:16;19.60;;;7.45;;
72301;SDS011;60235;52.234;5.186;2022-10-30T02:00:42;22.40;;;7.13;;
72301;SDS011;60235;52.234;5.186;2022-10-30T02:03:10;22.00;;;7.25;;
72301;SDS011;60235;52.234;5.186;2022-10-30T02:05:41;20.15;;;7.70;;
72301;SDS011;60235;52.234;5.186;2022-10-30T02:08:07;22.25;;;7.57;;
72301;SDS011;60235;52.234;5.186;2022-10-30T02:10:33;17.33;;;6.53;;
72301;SDS011;60235;52.234;5.186;2022-10-30T02:13:00;22.80;;;7.07;;
72301;SDS011;60235;52.234;5.186;2022-10-30T02:15:27;16.02;;;6.00;;
72301;SDS011;60235;52.234;5.186;2022-10-30T02:17:53;26.13;;;7.45;;
72301;SDS011;60235;52.234;5.186;2022-10-30T02:20:21;19.67;;;6.07;;
72301;SDS011;60235;52.234;5.186;2022-10-30T02:22:47;18.50;;;7.03;;
72301;SDS011;60235;52.234;5.186;2022-10-30T02:25:13;24.27;;;8.15;;
72301;SDS011;60235;52.234;5.186;2022-10-30T02:27:39;17.25;;;6.50;;
72301;SDS011;60235;52.234;5.186;2022-10-30T02:30:05;25.27;;;7.50;;
72301;SDS011;60235;52.234;5.186;2022-10-30T02:32:31;22.30;;;7.30;;
72301;SDS011;60235;52.234;5.186;2022-10-30T02:34:57;18.70;;;6.20;;
72301;SDS011;60235;52.234;5.186;2022-10-30T02:37:23;19.52;;;7.03;;
72301;SDS011;60235;52.234;5.186;2022-10-30T02:39:49;16.95;;;6.25;;
72301;SDS011;60235;52.234;5.186;2022-10-30T02:42:16;16.77;;;6.35;;
72301;SDS011;60235;52.234;5.186;2022-10-30T02:44:42;22.75;;;7.07;;
72301;SDS011;60235;52.234;5.186;2022-10-30T02:47:08;20.60;;;7.15;;
72301;SDS011;60235;52.234;5.186;2022-10-30T02:49:34;16.85;;;6.90;;
72301;SDS011;60235;52.234;5.186;2022-10-30T02:51:59;18.77;;;6.82;;
72301;SDS011;60235;52.234;5.186;2022-10-30T02:54:25;19.98;;;6.75;;
72301;SDS011;60235;52.234;5.186;2022-10-30T02:56:51;18.73;;;7.05;;
72301;SDS011;60235;52.234;5.186;2022-10-30T02:59:17;18.83;;;6.65;;
72301;SDS011;60235;52.234;5.186;2022-10-30T03:01:44;16.95;;;6.85;;
72301;SDS011;60235;52.234;5.186;2022-10-30T03:04:10;22.88;;;6.15;;
72301;SDS011;60235;52.234;5.186;2022-10-30T03:06:36;21.08;;;7.47;;
72301;SDS011;60235;52.234;5.186;2022-10-30T03:09:02;16.13;;;6.30;;
72301;SDS011;60235;52.234;5.186;2022-10-30T03:11:28;19.02;;;6.70;;
72301;SDS011;60235;52.234;5.186;2022-10-30T03:13:54;18.02;;;6.95;;
72301;SDS011;60235;52.234;5.186;2022-10-30T03:16:21;15.27;;;6.60;;
72301;SDS011;60235;52.234;5.186;2022-10-30T03:18:47;15.95;;;6.75;;
72301;SDS011;60235;52.234;5.186;2022-10-30T03:21:15;22.92;;;7.10;;
72301;SDS011;60235;52.234;5.186;2022-10-30T03:23:42;16.17;;;6.82;;
72301;SDS011;60235;52.234;5.186;2022-10-30T03:26:08;19.48;;;7.03;;
72301;SDS011;60235;52.234;5.186;2022-10-30T03:28:34;12.90;;;6.55;;
72301;SDS011;60235;52.234;5.186;2022-10-30T03:31:07;23.27;;;7.70;;
72301;SDS011;60235;52.234;5.186;2022-10-30T03:33:34;22.00;;;6.53;;
72301;SDS011;60235;52.234;5.186;2022-10-30T03:36:01;18.52;;;6.95;;
72301;SDS011;60235;52.234;5.186;2022-10-30T03:38:27;15.02;;;6.28;;
72301;SDS011;60235;52.234;5.186;2022-10-30T03:40:53;18.23;;;6.00;;
72301;SDS011;60235;52.234;5.186;2022-10-30T03:43:19;17.63;;;6.88;;
72301;SDS011;60235;52.234;5.186;2022-10-30T03:45:48;16.75;;;6.35;;
72301;SDS011;60235;52.234;5.186;2022-10-30T03:48:15;15.20;;;6.20;;
72301;SDS011;60235;52.234;5.186;2022-10-30T03:50:41;21.80;;;6.88;;
72301;SDS011;60235;52.234;5.186;2022-10-30T03:53:07;23.73;;;6.50;;
72301;SDS011;60235;52.234;5.186;2022-10-30T03:55:33;19.70;;;7.07;;
72301;SDS011;60235;52.234;5.186;2022-10-30T03:57:59;17.27;;;6.72;;
72301;SDS011;60235;52.234;5.186;2022-10-30T04:00:25;19.20;;;6.70;;
72301;SDS011;60235;52.234;5.186;2022-10-30T04:02:51;14.20;;;6.10;;
72301;SDS011;60235;52.234;5.186;2022-10-30T04:05:18;18.95;;;6.85;;
72301;SDS011;60235;52.234;5.186;2022-10-30T04:07:45;19.23;;;6.32;;
72301;SDS011;60235;52.234;5.186;2022-10-30T04:10:11;18.15;;;6.88;;
72301;SDS011;60235;52.234;5.186;2022-10-30T04:12:37;20.23;;;7.53;;
72301;SDS011;60235;52.234;5.186;2022-10-30T04:15:04;16.55;;;7.13;;
72301;SDS011;60235;52.234;5.186;2022-10-30T04:17:30;19.98;;;7.40;;
72301;SDS011;60235;52.234;5.186;2022-10-30T04:19:56;17.15;;;6.60;;
72301;SDS011;60235;52.234;5.186;2022-10-30T04:22:22;17.85;;;7.53;;
72301;SDS011;60235;52.234;5.186;2022-10-30T04:24:49;17.00;;;6.82;;
72301;SDS011;60235;52.234;5.186;2022-10-30T04:27:15;21.75;;;7.43;;
72301;SDS011;60235;52.234;5.186;2022-10-30T04:29:41;17.75;;;7.50;;
72301;SDS011;60235;52.234;5.186;2022-10-30T04:32:07;16.52;;;7.40;;
72301;SDS011;60235;52.234;5.186;2022-10-30T04:34:34;21.65;;;7.15;;
72301;SDS011;60235;52.234;5.186;2022-10-30T04:37:00;18.08;;;6.97;;
72301;SDS011;60235;52.234;5.186;2022-10-30T04:39:26;19.35;;;7.38;;
72301;SDS011;60235;52.234;5.186;2022-10-30T04:41:52;22.67;;;8.20;;
72301;SDS011;60235;52.234;5.186;2022-10-30T04:44:18;17.80;;;7.05;;
72301;SDS011;60235;52.234;5.186;2022-10-30T04:46:44;19.30;;;7.70;;
72301;SDS011;60235;52.234;5.186;2022-10-30T04:49:10;20.60;;;7.82;;
72301;SDS011;60235;52.234;5.186;2022-10-30T04:51:36;18.35;;;7.28;;
72301;SDS011;60235;52.234;5.186;2022-10-30T04:54:02;18.52;;;7.32;;
72301;SDS011;60235;52.234;5.186;2022-10-30T04:56:28;18.85;;;8.02;;
72301;SDS011;60235;52.234;5.186;2022-10-30T04:58:56;23.50;;;8.07;;
72301;SDS011;60235;52.234;5.186;2022-10-30T05:01:23;21.58;;;7.55;;
72301;SDS011;60235;52.234;5.186;2022-10-30T05:03:49;18.80;;;7.25;;
72301;SDS011;60235;52.234;5.186;2022-10-30T05:06:20;18.30;;;7.43;;
72301;SDS011;60235;52.234;5.186;2022-10-30T05:08:46;20.55;;;8.02;;
72301;SDS011;60235;52.234;5.186;2022-10-30T05:11:12;20.75;;;8.68;;
72301;SDS011;60235;52.234;5.186;2022-10-30T05:13:38;21.13;;;7.93;;
72301;SDS011;60235;52.234;5.186;2022-10-30T05:16:04;20.52;;;7.25;;
72301;SDS011;60235;52.234;5.186;2022-10-30T05:18:30;18.40;;;7.72;;
72301;SDS011;60235;52.234;5.186;2022-10-30T05:20:56;21.33;;;7.05;;
72301;SDS011;60235;52.234;5.186;2022-10-30T05:23:22;20.42;;;7.68;;
72301;SDS011;60235;52.234;5.186;2022-10-30T05:25:48;23.80;;;7.82;;
72301;SDS011;60235;52.234;5.186;2022-10-30T05:28:15;21.05;;;8.85;;
72301;SDS011;60235;52.234;5.186;2022-10-30T05:30:41;24.38;;;8.80;;
72301;SDS011;60235;52.234;5.186;2022-10-30T05:33:08;28.98;;;9.45;;
72301;SDS011;60235;52.234;5.186;2022-10-30T05:35:35;19.33;;;7.85;;
72301;SDS011;60235;52.234;5.186;2022-10-30T05:38:01;17.83;;;7.68;;
72301;SDS011;60235;52.234;5.186;2022-10-30T05:40:27;19.95;;;8.40;;
72301;SDS011;60235;52.234;5.186;2022-10-30T05:42:53;25.70;;;7.90;;
72301;SDS011;60235;52.234;5.186;2022-10-30T05:45:19;20.90;;;8.48;;
72301;SDS011;60235;52.234;5.186;2022-10-30T05:52:46;20.30;;;9.10;;
72301;SDS011;60235;52.234;5.186;2022-10-30T05:55:12;21.27;;;8.45;;
72301;SDS011;60235;52.234;5.186;2022-10-30T05:57:38;22.92;;;8.38;;
72301;SDS011;60235;52.234;5.186;2022-10-30T06:00:04;22.23;;;8.18;;
72301;SDS011;60235;52.234;5.186;2022-10-30T06:02:31;20.23;;;7.95;;
72301;SDS011;60235;52.234;5.186;2022-10-30T06:04:57;22.73;;;8.07;;
72301;SDS011;60235;52.234;5.186;2022-10-30T06:07:23;26.13;;;8.88;;
72301;SDS011;60235;52.234;5.186;2022-10-30T06:09:49;28.05;;;8.00;;
72301;SDS011;60235;52.234;5.186;2022-10-30T06:12:15;23.35;;;9.13;;
72301;SDS011;60235;52.234;5.186;2022-10-30T06:14:41;19.23;;;7.38;;
72301;SDS011;60235;52.234;5.186;2022-10-30T06:17:07;21.85;;;8.18;;
72301;SDS011;60235;52.234;5.186;2022-10-30T06:19:33;20.85;;;7.60;;
72301;SDS011;60235;52.234;5.186;2022-10-30T06:21:59;20.95;;;7.85;;
72301;SDS011;60235;52.234;5.186;2022-10-30T06:24:25;22.00;;;9.15;;
72301;SDS011;60235;52.234;5.186;2022-10-30T06:26:51;25.52;;;9.73;;
72301;SDS011;60235;52.234;5.186;2022-10-30T06:29:17;26.33;;;9.57;;
72301;SDS011;60235;52.234;5.186;2022-10-30T06:31:43;22.58;;;9.52;;
72301;SDS011;60235;52.234;5.186;2022-10-30T06:34:09;20.33;;;8.77;;
72301;SDS011;60235;52.234;5.186;2022-10-30T06:36:35;26.88;;;9.57;;
72301;SDS011;60235;52.234;5.186;2022-10-30T06:39:01;20.58;;;8.50;;
72301;SDS011;60235;52.234;5.186;2022-10-30T06:41:27;20.00;;;8.45;;
72301;SDS011;60235;52.234;5.186;2022-10-30T06:43:53;25.20;;;9.45;;
72301;SDS011;60235;52.234;5.186;2022-10-30T06:46:19;22.38;;;8.48;;
72301;SDS011;60235;52.234;5.186;2022-10-30T06:48:44;21.58;;;9.05;;
72301;SDS011;60235;52.234;5.186;2022-10-30T06:51:11;20.42;;;9.60;;
72301;SDS011;60235;52.234;5.186;2022-10-30T06:53:39;21.35;;;9.35;;
72301;SDS011;60235;52.234;5.186;2022-10-30T06:56:05;22.02;;;8.77;;
72301;SDS011;60235;52.234;5.186;2022-10-30T06:58:31;23.90;;;9.45;;
72301;SDS011;60235;52.234;5.186;2022-10-30T07:01:02;29.65;;;9.48;;
72301;SDS011;60235;52.234;5.186;2022-10-30T07:03:29;24.25;;;9.90;;
72301;SDS011;60235;52.234;5.186;2022-10-30T07:05:55;25.85;;;9.80;;
72301;SDS011;60235;52.234;5.186;2022-10-30T07:08:21;24.27;;;10.43;;
72301;SDS011;60235;52.234;5.186;2022-10-30T07:10:47;24.13;;;9.23;;
72301;SDS011;60235;52.234;5.186;2022-10-30T07:13:12;20.85;;;8.88;;
72301;SDS011;60235;52.234;5.186;2022-10-30T07:15:39;23.27;;;9.50;;
72301;SDS011;60235;52.234;5.186;2022-10-30T07:18:05;24.88;;;9.35;;
72301;SDS011;60235;52.234;5.186;2022-10-30T07:20:31;22.65;;;9.75;;
72301;SDS011;60235;52.234;5.186;2022-10-30T07:22:58;24.42;;;10.35;;
72301;SDS011;60235;52.234;5.186;2022-10-30T07:25:24;21.23;;;11.75;;
72301;SDS011;60235;52.234;5.186;2022-10-30T07:27:51;26.08;;;9.32;;
72301;SDS011;60235;52.234;5.186;2022-10-30T07:30:18;26.85;;;10.35;;
72301;SDS011;60235;52.234;5.186;2022-10-30T07:32:44;21.27;;;9.25;;
72301;SDS011;60235;52.234;5.186;2022-10-30T07:35:11;28.05;;;10.65;;
72301;SDS011;60235;52.234;5.186;2022-10-30T07:37:38;25.70;;;10.38;;
72301;SDS011;60235;52.234;5.186;2022-10-30T07:40:05;21.45;;;10.98;;
72301;SDS011;60235;52.234;5.186;2022-10-30T07:42:31;22.90;;;9.18;;
72301;SDS011;60235;52.234;5.186;2022-10-30T07:44:57;24.67;;;10.27;;
72301;SDS011;60235;52.234;5.186;2022-10-30T07:47:23;25.45;;;10.18;;
72301;SDS011;60235;52.234;5.186;2022-10-30T07:49:49;22.58;;;9.85;;
72301;SDS011;60235;52.234;5.186;2022-10-30T07:52:15;24.75;;;11.75;;
72301;SDS011;60235;52.234;5.186;2022-10-30T07:54:41;23.23;;;10.77;;
72301;SDS011;60235;52.234;5.186;2022-10-30T07:57:07;26.20;;;10.02;;
72301;SDS011;60235;52.234;5.186;2022-10-30T07:59:33;23.83;;;10.48;;
72301;SDS011;60235;52.234;5.186;2022-10-30T08:01:59;25.52;;;9.55;;
72301;SDS011;60235;52.234;5.186;2022-10-30T08:04:25;25.80;;;10.18;;
72301;SDS011;60235;52.234;5.186;2022-10-30T08:06:52;25.30;;;10.40;;
72301;SDS011;60235;52.234;5.186;2022-10-30T08:09:18;24.45;;;9.90;;
72301;SDS011;60235;52.234;5.186;2022-10-30T08:11:43;22.88;;;9.60;;
72301;SDS011;60235;52.234;5.186;2022-10-30T08:14:09;19.02;;;8.25;;
72301;SDS011;60235;52.234;5.186;2022-10-30T08:16:35;23.75;;;9.95;;
72301;SDS011;60235;52.234;5.186;2022-10-30T08:19:02;21.23;;;9.38;;
72301;SDS011;60235;52.234;5.186;2022-10-30T08:21:28;22.55;;;9.00;;
72301;SDS011;60235;52.234;5.186;2022-10-30T08:23:54;25.83;;;9.75;;
72301;SDS011;60235;52.234;5.186;2022-10-30T08:26:20;24.00;;;8.80;;
72301;SDS011;60235;52.234;5.186;2022-10-30T08:28:46;23.40;;;9.07;;
72301;SDS011;60235;52.234;5.186;2022-10-30T08:31:12;24.80;;;9.48;;
72301;SDS011;60235;52.234;5.186;2022-10-30T08:33:38;19.35;;;8.65;;
72301;SDS011;60235;52.234;5.186;2022-10-30T08:36:04;20.60;;;8.65;;
72301;SDS011;60235;52.234;5.186;2022-10-30T08:38:31;22.80;;;9.50;;
72301;SDS011;60235;52.234;5.186;2022-10-30T08:40:57;23.58;;;9.45;;
72301;SDS011;60235;52.234;5.186;2022-10-30T08:43:23;20.33;;;8.98;;
72301;SDS011;60235;52.234;5.186;2022-10-30T08:45:50;23.52;;;9.32;;
72301;SDS011;60235;52.234;5.186;2022-10-30T08:48:16;22.13;;;8.20;;
72301;SDS011;60235;52.234;5.186;2022-10-30T08:50:42;20.98;;;8.30;;
72301;SDS011;60235;52.234;5.186;2022-10-30T08:53:10;21.50;;;8.85;;
72301;SDS011;60235;52.234;5.186;2022-10-30T08:55:36;23.67;;;8.18;;
72301;SDS011;60235;52.234;5.186;2022-10-30T08:58:02;18.08;;;8.88;;
72301;SDS011;60235;52.234;5.186;2022-10-30T09:00:28;21.77;;;8.30;;
72301;SDS011;60235;52.234;5.186;2022-10-30T09:02:55;23.90;;;8.73;;
72301;SDS011;60235;52.234;5.186;2022-10-30T09:05:21;26.23;;;8.98;;
72301;SDS011;60235;52.234;5.186;2022-10-30T09:07:47;30.05;;;9.75;;
72301;SDS011;60235;52.234;5.186;2022-10-30T09:10:13;23.27;;;8.52;;
72301;SDS011;60235;52.234;5.186;2022-10-30T09:12:39;23.17;;;7.90;;
72301;SDS011;60235;52.234;5.186;2022-10-30T09:15:06;19.25;;;8.07;;
72301;SDS011;60235;52.234;5.186;2022-10-30T09:17:32;22.80;;;8.07;;
72301;SDS011;60235;52.234;5.186;2022-10-30T09:19:58;26.10;;;9.15;;
72301;SDS011;60235;52.234;5.186;2022-10-30T09:22:24;20.90;;;8.10;;
72301;SDS011;60235;52.234;5.186;2022-10-30T09:24:50;17.95;;;8.00;;
72301;SDS011;60235;52.234;5.186;2022-10-30T09:27:16;21.30;;;8.23;;
72301;SDS011;60235;52.234;5.186;2022-10-30T09:29:42;20.67;;;7.63;;
72301;SDS011;60235;52.234;5.186;2022-10-30T09:32:08;21.05;;;7.78;;
72301;SDS011;60235;52.234;5.186;2022-10-30T09:34:34;23.20;;;7.57;;
72301;SDS011;60235;52.234;5.186;2022-10-30T09:37:02;19.20;;;7.55;;
72301;SDS011;60235;52.234;5.186;2022-10-30T09:39:28;22.25;;;9.30;;
72301;SDS011;60235;52.234;5.186;2022-10-30T09:50:31;21.52;;;9.00;;
72301;SDS011;60235;52.234;5.186;2022-10-30T09:55:19;20.08;;;7.45;;
72301;SDS011;60235;52.234;5.186;2022-10-30T10:02:55;21.55;;;8.15;;
72301;SDS011;60235;52.234;5.186;2022-10-30T10:05:39;19.55;;;7.32;;
72301;SDS011;60235;52.234;5.186;2022-10-30T10:08:08;21.45;;;9.15;;
72301;SDS011;60235;52.234;5.186;2022-10-30T10:10:54;21.35;;;7.75;;
72301;SDS011;60235;52.234;5.186;2022-10-30T10:13:25;20.20;;;7.80;;
72301;SDS011;60235;52.234;5.186;2022-10-30T10:15:58;19.45;;;8.55;;
72301;SDS011;60235;52.234;5.186;2022-10-30T10:18:36;25.13;;;8.43;;
72301;SDS011;60235;52.234;5.186;2022-10-30T10:21:13;23.13;;;7.72;;
72301;SDS011;60235;52.234;5.186;2022-10-30T10:23:46;20.27;;;8.02;;
72301;SDS011;60235;52.234;5.186;2022-10-30T10:26:22;25.40;;;9.27;;
72301;SDS011;60235;52.234;5.186;2022-10-30T10:28:58;19.00;;;7.68;;
72301;SDS011;60235;52.234;5.186;2022-10-30T10:31:36;22.10;;;8.38;;
72301;SDS011;60235;52.234;5.186;2022-10-30T10:34:14;24.05;;;8.18;;
72301;SDS011;60235;52.234;5.186;2022-10-30T10:36:49;19.95;;;8.32;;
72301;SDS011;60235;52.234;5.186;2022-10-30T10:39:26;19.50;;;8.65;;
72301;SDS011;60235;52.234;5.186;2022-10-30T10:41:57;23.80;;;8.20;;
72301;SDS011;60235;52.234;5.186;2022-10-30T10:51:52;20.13;;;8.57;;
72301;SDS011;60235;52.234;5.186;2022-10-30T10:54:23;19.98;;;6.55;;
72301;SDS011;60235;52.234;5.186;2022-10-30T10:56:50;19.05;;;7.05;;
72301;SDS011;60235;52.234;5.186;2022-10-30T10:59:18;17.38;;;7.38;;
72301;SDS011;60235;52.234;5.186;2022-10-30T11:01:48;24.30;;;8.18;;
72301;SDS011;60235;52.234;5.186;2022-10-30T11:04:19;18.88;;;6.38;;
72301;SDS011;60235;52.234;5.186;2022-10-30T11:06:49;19.42;;;7.82;;
72301;SDS011;60235;52.234;5.186;2022-10-30T11:09:17;19.35;;;7.05;;
72301;SDS011;60235;52.234;5.186;2022-10-30T11:11:44;18.75;;;7.13;;
72301;SDS011;60235;52.234;5.186;2022-10-30T11:14:13;19.02;;;6.80;;
72301;SDS011;60235;52.234;5.186;2022-10-30T11:17:41;21.65;;;7.38;;
72301;SDS011;60235;52.234;5.186;2022-10-30T11:19:35;17.25;;;7.10;;
72301;SDS011;60235;52.234;5.186;2022-10-30T11:22:01;19.98;;;6.93;;
72301;SDS011;60235;52.234;5.186;2022-10-30T11:24:29;18.90;;;7.63;;
72301;SDS011;60235;52.234;5.186;2022-10-30T11:26:57;19.65;;;7.38;;
72301;SDS011;60235;52.234;5.186;2022-10-30T11:29:26;17.88;;;6.43;;
72301;SDS011;60235;52.234;5.186;2022-10-30T11:32:03;15.40;;;6.63;;
72301;SDS011;60235;52.234;5.186;2022-10-30T11:34:30;17.92;;;5.97;;
72301;SDS011;60235;52.234;5.186;2022-10-30T11:36:58;17.52;;;6.25;;
72301;SDS011;60235;52.234;5.186;2022-10-30T11:39:33;17.73;;;7.22;;
72301;SDS011;60235;52.234;5.186;2022-10-30T11:44:27;19.48;;;6.63;;
72301;SDS011;60235;52.234;5.186;2022-10-30T11:46:54;16.85;;;6.30;;
72301;SDS011;60235;52.234;5.186;2022-10-30T11:49:24;16.92;;;6.57;;
72301;SDS011;60235;52.234;5.186;2022-10-30T11:51:51;19.52;;;7.88;;
72301;SDS011;60235;52.234;5.186;2022-10-30T11:54:18;22.98;;;6.47;;
72301;SDS011;60235;52.234;5.186;2022-10-30T11:56:49;17.48;;;6.60;;
72301;SDS011;60235;52.234;5.186;2022-10-30T11:59:18;20.15;;;6.25;;
72301;SDS011;60235;52.234;5.186;2022-10-30T12:02:01;20.88;;;6.32;;
72301;SDS011;60235;52.234;5.186;2022-10-30T12:04:27;22.15;;;7.00;;
72301;SDS011;60235;52.234;5.186;2022-10-30T12:07:06;16.08;;;6.13;;
72301;SDS011;60235;52.234;5.186;2022-10-30T12:09:40;17.33;;;6.40;;
72301;SDS011;60235;52.234;5.186;2022-10-30T12:12:09;16.02;;;6.05;;
72301;SDS011;60235;52.234;5.186;2022-10-30T12:14:36;15.23;;;6.53;;
72301;SDS011;60235;52.234;5.186;2022-10-30T12:17:02;19.77;;;6.57;;
72301;SDS011;60235;52.234;5.186;2022-10-30T12:19:29;20.92;;;6.97;;
72301;SDS011;60235;52.234;5.186;2022-10-30T12:21:56;20.35;;;6.38;;
72301;SDS011;60235;52.234;5.186;2022-10-30T12:24:32;19.45;;;6.53;;
72301;SDS011;60235;52.234;5.186;2022-10-30T12:27:01;23.70;;;6.45;;
72301;SDS011;60235;52.234;5.186;2022-10-30T12:32:15;19.77;;;7.00;;
72301;SDS011;60235;52.234;5.186;2022-10-30T12:34:44;15.73;;;6.03;;
72301;SDS011;60235;52.234;5.186;2022-10-30T12:37:16;18.25;;;7.18;;
72301;SDS011;60235;52.234;5.186;2022-10-30T12:39:46;22.25;;;7.28;;
72301;SDS011;60235;52.234;5.186;2022-10-30T12:44:40;21.23;;;7.63;;
72301;SDS011;60235;52.234;5.186;2022-10-30T12:47:11;17.17;;;6.85;;
72301;SDS011;60235;52.234;5.186;2022-10-30T12:49:46;24.65;;;7.72;;
72301;SDS011;60235;52.234;5.186;2022-10-30T13:02:14;17.88;;;7.28;;
72301;SDS011;60235;52.234;5.186;2022-10-30T13:04:45;22.23;;;6.85;;
72301;SDS011;60235;52.234;5.186;2022-10-30T13:10:24;20.17;;;6.85;;
72301;SDS011;60235;52.234;5.186;2022-10-30T13:12:29;19.48;;;7.60;;
72301;SDS011;60235;52.234;5.186;2022-10-30T13:14:58;25.20;;;7.50;;
72301;SDS011;60235;52.234;5.186;2022-10-30T13:17:26;22.75;;;7.82;;
72301;SDS011;60235;52.234;5.186;2022-10-30T13:19:52;22.33;;;7.93;;
72301;SDS011;60235;52.234;5.186;2022-10-30T13:22:20;19.92;;;6.93;;
72301;SDS011;60235;52.234;5.186;2022-10-30T13:24:55;22.58;;;7.68;;
72301;SDS011;60235;52.234;5.186;2022-10-30T13:29:51;20.92;;;6.60;;
72301;SDS011;60235;52.234;5.186;2022-10-30T13:32:37;18.70;;;7.00;;
72301;SDS011;60235;52.234;5.186;2022-10-30T13:37:41;21.88;;;7.28;;
72301;SDS011;60235;52.234;5.186;2022-10-30T13:48:13;22.20;;;7.00;;
72301;SDS011;60235;52.234;5.186;2022-10-30T13:53:26;17.92;;;6.93;;
72301;SDS011;60235;52.234;5.186;2022-10-30T13:55:54;17.05;;;7.40;;
72301;SDS011;60235;52.234;5.186;2022-10-30T13:58:34;20.75;;;7.55;;
72301;SDS011;60235;52.234;5.186;2022-10-30T14:06:29;17.15;;;6.85;;
72301;SDS011;60235;52.234;5.186;2022-10-30T14:11:42;18.63;;;6.45;;
72301;SDS011;60235;52.234;5.186;2022-10-30T14:17:10;21.98;;;7.53;;
72301;SDS011;60235;52.234;5.186;2022-10-30T14:22:24;20.55;;;7.32;;
72301;SDS011;60235;52.234;5.186;2022-10-30T14:24:50;20.65;;;7.13;;
72301;SDS011;60235;52.234;5.186;2022-10-30T14:27:29;17.77;;;6.80;;
72301;SDS011;60235;52.234;5.186;2022-10-30T14:29:55;24.77;;;6.75;;
72301;SDS011;60235;52.234;5.186;2022-10-30T14:39:48;21.35;;;7.03;;
72301;SDS011;60235;52.234;5.186;2022-10-30T14:50:01;28.05;;;9.73;;
72301;SDS011;60235;52.234;5.186;2022-10-30T14:52:29;27.65;;;8.20;;
72301;SDS011;60235;52.234;5.186;2022-10-30T14:57:42;20.85;;;8.40;;
72301;SDS011;60235;52.234;5.186;2022-10-30T15:00:55;20.83;;;8.10;;
72301;SDS011;60235;52.234;5.186;2022-10-30T15:05:42;19.77;;;9.15;;
72301;SDS011;60235;52.234;5.186;2022-10-30T15:13:31;26.95;;;7.70;;
72301;SDS011;60235;52.234;5.186;2022-10-30T15:15:58;22.77;;;7.72;;
72301;SDS011;60235;52.234;5.186;2022-10-30T15:18:24;21.27;;;8.00;;
72301;SDS011;60235;52.234;5.186;2022-10-30T15:20:51;26.05;;;8.55;;
72301;SDS011;60235;52.234;5.186;2022-10-30T15:23:22;18.30;;;8.57;;
72301;SDS011;60235;52.234;5.186;2022-10-30T15:25:51;24.08;;;8.95;;
72301;SDS011;60235;52.234;5.186;2022-10-30T15:28:19;18.23;;;7.90;;
72301;SDS011;60235;52.234;5.186;2022-10-30T15:30:58;20.13;;;8.15;;
72301;SDS011;60235;52.234;5.186;2022-10-30T15:33:28;14.95;;;7.35;;
72301;SDS011;60235;52.234;5.186;2022-10-30T15:35:59;21.42;;;8.35;;
72301;SDS011;60235;52.234;5.186;2022-10-30T15:38:25;22.35;;;7.70;;
72301;SDS011;60235;52.234;5.186;2022-10-30T15:40:58;18.95;;;7.80;;
72301;SDS011;60235;52.234;5.186;2022-10-30T15:43:27;24.58;;;8.75;;
72301;SDS011;60235;52.234;5.186;2022-10-30T15:45:54;19.70;;;7.65;;
72301;SDS011;60235;52.234;5.186;2022-10-30T15:48:27;20.55;;;7.80;;
72301;SDS011;60235;52.234;5.186;2022-10-30T15:50:57;22.70;;;8.75;;
72301;SDS011;60235;52.234;5.186;2022-10-30T15:53:26;23.25;;;8.25;;
72301;SDS011;60235;52.234;5.186;2022-10-30T15:55:52;19.90;;;9.00;;
72301;SDS011;60235;52.234;5.186;2022-10-30T15:58:22;27.00;;;8.38;;
72301;SDS011;60235;52.234;5.186;2022-10-30T16:00:56;32.17;;;8.32;;
72301;SDS011;60235;52.234;5.186;2022-10-30T16:03:22;17.40;;;7.40;;
72301;SDS011;60235;52.234;5.186;2022-10-30T16:05:48;20.48;;;7.05;;
72301;SDS011;60235;52.234;5.186;2022-10-30T16:08:19;18.77;;;6.38;;
72301;SDS011;60235;52.234;5.186;2022-10-30T16:10:45;21.05;;;8.35;;
72301;SDS011;60235;52.234;5.186;2022-10-30T16:13:13;15.63;;;5.78;;
72301;SDS011;60235;52.234;5.186;2022-10-30T16:15:41;19.27;;;6.43;;
72301;SDS011;60235;52.234;5.186;2022-10-30T16:20:35;18.60;;;6.57;;
72301;SDS011;60235;52.234;5.186;2022-10-30T16:23:02;16.05;;;5.05;;
72301;SDS011;60235;52.234;5.186;2022-10-30T16:25:29;15.38;;;5.50;;
72301;SDS011;60235;52.234;5.186;2022-10-30T16:27:56;19.00;;;6.07;;
72301;SDS011;60235;52.234;5.186;2022-10-30T16:30:22;20.08;;;6.05;;
72301;SDS011;60235;52.234;5.186;2022-10-30T16:32:53;14.32;;;5.47;;
72301;SDS011;60235;52.234;5.186;2022-10-30T16:35:20;20.08;;;5.53;;
72301;SDS011;60235;52.234;5.186;2022-10-30T16:37:47;18.67;;;5.03;;
72301;SDS011;60235;52.234;5.186;2022-10-30T16:40:15;17.60;;;5.18;;
72301;SDS011;60235;52.234;5.186;2022-10-30T16:42:48;15.27;;;5.32;;
72301;SDS011;60235;52.234;5.186;2022-10-30T16:47:43;17.38;;;5.00;;
72301;SDS011;60235;52.234;5.186;2022-10-30T16:50:11;16.23;;;4.80;;
72301;SDS011;60235;52.234;5.186;2022-10-30T16:52:37;18.27;;;5.97;;